sensor_id;sensor_type;location;lat;lon;timestamp;P1;durP1;ratioP1;P2;durP2;ratioP2
25615;SDS011;13482;48.234;13.006;2023-02-24T00:01:51;9.23;;;4.38;;
25615;SDS011;13482;48.234;13.006;2023-02-24T00:04:30;5.30;;;4.07;;
25615;SDS011;13482;48.234;13.006;2023-02-24T00:07:01;5.10;;;3.90;;
25615;SDS011;13482;48.234;13.006;2023-02-24T00:09:29;10.82;;;4.45;;
25615;SDS011;13482;48.234;13.006;2023-02-24T00:12:00;12.02;;;4.40;;
25615;SDS011;13482;48.234;13.006;2023-02-24T00:14:32;15.25;;;4.82;;
25615;SDS011;13482;48.234;13.006;2023-02-24T00:17:03;11.05;;;4.05;;
25615;SDS011;13482;48.234;13.006;2023-02-24T00:19:33;8.18;;;4.43;;
25615;SDS011;13482;48.234;13.006;2023-02-24T00:22:02;9.85;;;4.22;;
25615;SDS011;13482;48.234;13.006;2023-02-24T00:24:32;8.48;;;4.28;;
25615;SDS011;13482;48.234;13.006;2023-02-24T00:27:01;9.20;;;4.97;;
25615;SDS011;13482;48.234;13.006;2023-02-24T00:29:36;5.93;;;4.80;;
25615;SDS011;13482;48.234;13.006;2023-02-24T00:32:05;5.00;;;3.80;;
25615;SDS011;13482;48.234;13.006;2023-02-24T00:34:38;7.97;;;4.18;;
25615;SDS011;13482;48.234;13.006;2023-02-24T00:37:05;11.52;;;4.65;;
25615;SDS011;13482;48.234;13.006;2023-02-24T00:39:33;6.20;;;4.13;;
25615;SDS011;13482;48.234;13.006;2023-02-24T00:42:03;7.22;;;4.38;;
25615;SDS011;13482;48.234;13.006;2023-02-24T00:44:35;5.22;;;4.13;;
25615;SDS011;13482;48.234;13.006;2023-02-24T00:47:06;5.25;;;4.32;;
25615;SDS011;13482;48.234;13.006;2023-02-24T00:49:36;5.15;;;4.22;;
25615;SDS011;13482;48.234;13.006;2023-02-24T00:52:12;6.05;;;4.45;;
25615;SDS011;13482;48.234;13.006;2023-02-24T00:54:45;7.75;;;4.68;;
25615;SDS011;13482;48.234;13.006;2023-02-24T00:57:14;6.47;;;4.47;;
25615;SDS011;13482;48.234;13.006;2023-02-24T00:59:43;6.10;;;4.70;;
25615;SDS011;13482;48.234;13.006;2023-02-24T01:02:16;5.47;;;4.60;;
25615;SDS011;13482;48.234;13.006;2023-02-24T01:04:44;5.93;;;4.72;;
25615;SDS011;13482;48.234;13.006;2023-02-24T01:07:11;7.10;;;4.85;;
25615;SDS011;13482;48.234;13.006;2023-02-24T01:09:39;8.07;;;5.22;;
25615;SDS011;13482;48.234;13.006;2023-02-24T01:12:08;6.60;;;5.03;;
25615;SDS011;13482;48.234;13.006;2023-02-24T01:15:03;6.20;;;4.82;;
25615;SDS011;13482;48.234;13.006;2023-02-24T01:17:35;5.95;;;4.28;;
25615;SDS011;13482;48.234;13.006;2023-02-24T01:20:04;5.65;;;4.57;;
25615;SDS011;13482;48.234;13.006;2023-02-24T01:22:46;6.45;;;4.95;;
25615;SDS011;13482;48.234;13.006;2023-02-24T01:25:18;5.68;;;4.38;;
25615;SDS011;13482;48.234;13.006;2023-02-24T01:27:46;8.18;;;4.55;;
25615;SDS011;13482;48.234;13.006;2023-02-24T01:30:14;9.23;;;4.90;;
25615;SDS011;13482;48.234;13.006;2023-02-24T01:32:42;10.00;;;4.30;;
25615;SDS011;13482;48.234;13.006;2023-02-24T01:35:10;10.18;;;4.22;;
25615;SDS011;13482;48.234;13.006;2023-02-24T01:37:37;5.10;;;4.03;;
25615;SDS011;13482;48.234;13.006;2023-02-24T01:40:05;11.00;;;4.50;;
25615;SDS011;13482;48.234;13.006;2023-02-24T01:42:40;14.23;;;4.15;;
25615;SDS011;13482;48.234;13.006;2023-02-24T01:45:11;19.05;;;5.10;;
25615;SDS011;13482;48.234;13.006;2023-02-24T01:47:44;16.38;;;4.68;;
25615;SDS011;13482;48.234;13.006;2023-02-24T01:50:12;10.75;;;4.70;;
25615;SDS011;13482;48.234;13.006;2023-02-24T01:52:47;12.27;;;4.57;;
25615;SDS011;13482;48.234;13.006;2023-02-24T01:55:22;6.47;;;4.13;;
25615;SDS011;13482;48.234;13.006;2023-02-24T01:58:04;11.43;;;4.53;;
25615;SDS011;13482;48.234;13.006;2023-02-24T02:00:38;5.45;;;3.83;;
25615;SDS011;13482;48.234;13.006;2023-02-24T02:03:32;10.55;;;3.78;;
25615;SDS011;13482;48.234;13.006;2023-02-24T02:06:08;14.80;;;4.03;;
25615;SDS011;13482;48.234;13.006;2023-02-24T02:08:39;21.25;;;4.57;;
25615;SDS011;13482;48.234;13.006;2023-02-24T02:11:09;4.57;;;4.03;;
25615;SDS011;13482;48.234;13.006;2023-02-24T02:13:41;6.95;;;3.95;;
25615;SDS011;13482;48.234;13.006;2023-02-24T02:19:18;5.80;;;3.58;;
25615;SDS011;13482;48.234;13.006;2023-02-24T02:22:03;7.90;;;3.88;;
25615;SDS011;13482;48.234;13.006;2023-02-24T02:27:50;8.27;;;3.55;;
25615;SDS011;13482;48.234;13.006;2023-02-24T02:39:26;5.22;;;3.13;;
25615;SDS011;13482;48.234;13.006;2023-02-24T02:44:57;9.60;;;3.08;;
25615;SDS011;13482;48.234;13.006;2023-02-24T02:47:44;6.40;;;3.28;;
25615;SDS011;13482;48.234;13.006;2023-02-24T02:50:44;12.15;;;3.30;;
25615;SDS011;13482;48.234;13.006;2023-02-24T02:56:16;4.45;;;2.97;;
25615;SDS011;13482;48.234;13.006;2023-02-24T02:58:50;5.70;;;3.30;;
25615;SDS011;13482;48.234;13.006;2023-02-24T03:01:24;5.90;;;3.10;;
25615;SDS011;13482;48.234;13.006;2023-02-24T03:03:57;3.50;;;2.92;;
25615;SDS011;13482;48.234;13.006;2023-02-24T03:06:31;5.65;;;3.33;;
25615;SDS011;13482;48.234;13.006;2023-02-24T03:09:17;7.75;;;3.25;;
25615;SDS011;13482;48.234;13.006;2023-02-24T03:12:13;5.30;;;3.20;;
25615;SDS011;13482;48.234;13.006;2023-02-24T03:14:47;5.53;;;3.20;;
25615;SDS011;13482;48.234;13.006;2023-02-24T03:17:21;5.38;;;3.38;;
25615;SDS011;13482;48.234;13.006;2023-02-24T03:19:52;4.18;;;3.55;;
25615;SDS011;13482;48.234;13.006;2023-02-24T03:22:48;6.00;;;3.88;;
25615;SDS011;13482;48.234;13.006;2023-02-24T03:25:35;4.38;;;3.05;;
25615;SDS011;13482;48.234;13.006;2023-02-24T03:28:13;3.92;;;3.42;;
25615;SDS011;13482;48.234;13.006;2023-02-24T03:30:52;4.13;;;3.50;;
25615;SDS011;13482;48.234;13.006;2023-02-24T03:34:02;5.43;;;3.53;;
25615;SDS011;13482;48.234;13.006;2023-02-24T03:36:39;3.92;;;3.17;;
25615;SDS011;13482;48.234;13.006;2023-02-24T03:39:08;4.18;;;3.50;;
25615;SDS011;13482;48.234;13.006;2023-02-24T03:41:45;4.35;;;3.50;;
25615;SDS011;13482;48.234;13.006;2023-02-24T03:44:37;4.68;;;3.55;;
25615;SDS011;13482;48.234;13.006;2023-02-24T03:47:04;4.07;;;3.42;;
25615;SDS011;13482;48.234;13.006;2023-02-24T03:49:34;4.43;;;3.60;;
25615;SDS011;13482;48.234;13.006;2023-02-24T03:52:07;4.78;;;3.78;;
25615;SDS011;13482;48.234;13.006;2023-02-24T04:00:51;5.57;;;3.70;;
25615;SDS011;13482;48.234;13.006;2023-02-24T04:09:27;4.60;;;3.55;;
25615;SDS011;13482;48.234;13.006;2023-02-24T04:12:29;4.20;;;3.30;;
25615;SDS011;13482;48.234;13.006;2023-02-24T04:15:10;4.13;;;3.50;;
25615;SDS011;13482;48.234;13.006;2023-02-24T04:17:49;3.65;;;3.08;;
25615;SDS011;13482;48.234;13.006;2023-02-24T04:20:25;5.13;;;4.18;;
25615;SDS011;13482;48.234;13.006;2023-02-24T04:23:07;8.00;;;4.13;;
25615;SDS011;13482;48.234;13.006;2023-02-24T04:25:42;4.40;;;3.65;;
25615;SDS011;13482;48.234;13.006;2023-02-24T04:30:44;4.53;;;3.33;;
25615;SDS011;13482;48.234;13.006;2023-02-24T04:33:16;7.25;;;3.80;;
25615;SDS011;13482;48.234;13.006;2023-02-24T04:35:47;12.95;;;3.83;;
25615;SDS011;13482;48.234;13.006;2023-02-24T04:38:16;5.53;;;3.70;;
25615;SDS011;13482;48.234;13.006;2023-02-24T04:40:44;5.15;;;4.15;;
25615;SDS011;13482;48.234;13.006;2023-02-24T04:43:11;5.78;;;3.78;;
25615;SDS011;13482;48.234;13.006;2023-02-24T04:45:38;6.97;;;3.42;;
25615;SDS011;13482;48.234;13.006;2023-02-24T04:48:05;5.53;;;3.70;;
25615;SDS011;13482;48.234;13.006;2023-02-24T04:50:39;4.57;;;3.67;;
25615;SDS011;13482;48.234;13.006;2023-02-24T04:53:12;13.77;;;4.13;;
25615;SDS011;13482;48.234;13.006;2023-02-24T04:55:46;13.65;;;3.80;;
25615;SDS011;13482;48.234;13.006;2023-02-24T04:58:18;5.40;;;3.45;;
25615;SDS011;13482;48.234;13.006;2023-02-24T05:00:49;5.50;;;3.47;;
25615;SDS011;13482;48.234;13.006;2023-02-24T05:03:19;5.85;;;3.33;;
25615;SDS011;13482;48.234;13.006;2023-02-24T05:05:48;5.53;;;4.40;;
25615;SDS011;13482;48.234;13.006;2023-02-24T05:08:26;5.50;;;4.03;;
25615;SDS011;13482;48.234;13.006;2023-02-24T05:10:55;5.45;;;3.58;;
25615;SDS011;13482;48.234;13.006;2023-02-24T05:13:24;4.00;;;2.92;;
25615;SDS011;13482;48.234;13.006;2023-02-24T05:15:58;4.28;;;3.42;;
25615;SDS011;13482;48.234;13.006;2023-02-24T05:18:38;4.13;;;3.33;;
25615;SDS011;13482;48.234;13.006;2023-02-24T05:21:07;6.07;;;4.55;;
25615;SDS011;13482;48.234;13.006;2023-02-24T05:23:55;10.40;;;7.40;;
25615;SDS011;13482;48.234;13.006;2023-02-24T05:26:24;10.18;;;7.57;;
25615;SDS011;13482;48.234;13.006;2023-02-24T05:28:53;8.77;;;6.30;;
25615;SDS011;13482;48.234;13.006;2023-02-24T05:31:22;6.80;;;5.43;;
25615;SDS011;13482;48.234;13.006;2023-02-24T05:33:54;8.13;;;5.13;;
25615;SDS011;13482;48.234;13.006;2023-02-24T05:36:24;5.78;;;4.70;;
25615;SDS011;13482;48.234;13.006;2023-02-24T05:38:55;5.70;;;4.43;;
25615;SDS011;13482;48.234;13.006;2023-02-24T05:41:45;5.25;;;4.20;;
25615;SDS011;13482;48.234;13.006;2023-02-24T05:44:15;5.20;;;4.00;;
25615;SDS011;13482;48.234;13.006;2023-02-24T05:46:52;5.18;;;4.05;;
25615;SDS011;13482;48.234;13.006;2023-02-24T05:49:25;5.50;;;4.15;;
25615;SDS011;13482;48.234;13.006;2023-02-24T05:51:59;5.30;;;4.03;;
25615;SDS011;13482;48.234;13.006;2023-02-24T05:54:37;10.15;;;6.07;;
25615;SDS011;13482;48.234;13.006;2023-02-24T05:57:09;10.45;;;6.78;;
25615;SDS011;13482;48.234;13.006;2023-02-24T05:59:39;8.45;;;6.40;;
25615;SDS011;13482;48.234;13.006;2023-02-24T06:02:08;7.28;;;5.80;;
25615;SDS011;13482;48.234;13.006;2023-02-24T06:04:40;7.35;;;5.32;;
25615;SDS011;13482;48.234;13.006;2023-02-24T06:07:17;7.28;;;5.07;;
25615;SDS011;13482;48.234;13.006;2023-02-24T06:09:51;6.35;;;4.50;;
25615;SDS011;13482;48.234;13.006;2023-02-24T06:12:29;6.40;;;4.63;;
25615;SDS011;13482;48.234;13.006;2023-02-24T06:14:59;6.03;;;4.28;;
25615;SDS011;13482;48.234;13.006;2023-02-24T06:17:33;5.70;;;4.28;;
25615;SDS011;13482;48.234;13.006;2023-02-24T06:20:00;5.88;;;4.03;;
25615;SDS011;13482;48.234;13.006;2023-02-24T06:22:38;4.57;;;3.50;;
25615;SDS011;13482;48.234;13.006;2023-02-24T06:25:08;5.35;;;3.83;;
25615;SDS011;13482;48.234;13.006;2023-02-24T06:27:37;6.47;;;4.15;;
25615;SDS011;13482;48.234;13.006;2023-02-24T06:30:04;5.80;;;4.30;;
25615;SDS011;13482;48.234;13.006;2023-02-24T06:32:35;5.53;;;3.83;;
25615;SDS011;13482;48.234;13.006;2023-02-24T06:35:03;5.65;;;4.13;;
25615;SDS011;13482;48.234;13.006;2023-02-24T06:37:31;5.10;;;3.30;;
25615;SDS011;13482;48.234;13.006;2023-02-24T06:39:58;5.57;;;3.95;;
25615;SDS011;13482;48.234;13.006;2023-02-24T06:42:25;5.00;;;4.05;;
25615;SDS011;13482;48.234;13.006;2023-02-24T06:44:53;5.07;;;4.07;;
25615;SDS011;13482;48.234;13.006;2023-02-24T06:47:20;5.40;;;4.45;;
25615;SDS011;13482;48.234;13.006;2023-02-24T06:49:48;6.47;;;4.47;;
25615;SDS011;13482;48.234;13.006;2023-02-24T06:52:15;5.18;;;3.95;;
25615;SDS011;13482;48.234;13.006;2023-02-24T06:54:46;5.95;;;4.15;;
25615;SDS011;13482;48.234;13.006;2023-02-24T06:57:14;4.50;;;3.65;;
25615;SDS011;13482;48.234;13.006;2023-02-24T06:59:41;5.57;;;4.18;;
25615;SDS011;13482;48.234;13.006;2023-02-24T07:02:08;6.07;;;4.15;;
25615;SDS011;13482;48.234;13.006;2023-02-24T07:04:36;6.63;;;4.18;;
25615;SDS011;13482;48.234;13.006;2023-02-24T07:07:09;5.10;;;4.05;;
25615;SDS011;13482;48.234;13.006;2023-02-24T07:09:39;6.80;;;4.03;;
25615;SDS011;13482;48.234;13.006;2023-02-24T07:12:08;5.75;;;4.03;;
25615;SDS011;13482;48.234;13.006;2023-02-24T07:14:38;5.40;;;4.28;;
25615;SDS011;13482;48.234;13.006;2023-02-24T07:17:06;6.70;;;4.10;;
25615;SDS011;13482;48.234;13.006;2023-02-24T07:19:34;5.63;;;4.13;;
25615;SDS011;13482;48.234;13.006;2023-02-24T07:22:02;5.68;;;4.32;;
25615;SDS011;13482;48.234;13.006;2023-02-24T07:24:32;6.88;;;4.57;;
25615;SDS011;13482;48.234;13.006;2023-02-24T07:27:06;6.88;;;4.85;;
25615;SDS011;13482;48.234;13.006;2023-02-24T07:29:38;6.07;;;4.43;;
25615;SDS011;13482;48.234;13.006;2023-02-24T07:32:06;6.45;;;3.72;;
25615;SDS011;13482;48.234;13.006;2023-02-24T07:34:36;5.90;;;4.10;;
25615;SDS011;13482;48.234;13.006;2023-02-24T07:37:06;5.05;;;3.47;;
25615;SDS011;13482;48.234;13.006;2023-02-24T07:39:35;5.35;;;3.55;;
25615;SDS011;13482;48.234;13.006;2023-02-24T07:42:05;5.60;;;3.30;;
25615;SDS011;13482;48.234;13.006;2023-02-24T07:44:35;4.25;;;3.45;;
25615;SDS011;13482;48.234;13.006;2023-02-24T07:47:04;4.45;;;3.33;;
25615;SDS011;13482;48.234;13.006;2023-02-24T07:49:33;4.40;;;3.30;;
25615;SDS011;13482;48.234;13.006;2023-02-24T07:52:01;4.55;;;3.40;;
25615;SDS011;13482;48.234;13.006;2023-02-24T07:54:29;5.45;;;4.00;;
25615;SDS011;13482;48.234;13.006;2023-02-24T07:56:57;4.43;;;3.58;;
25615;SDS011;13482;48.234;13.006;2023-02-24T07:59:29;5.22;;;4.03;;
25615;SDS011;13482;48.234;13.006;2023-02-24T08:01:59;5.07;;;3.75;;
25615;SDS011;13482;48.234;13.006;2023-02-24T08:04:30;5.30;;;4.22;;
25615;SDS011;13482;48.234;13.006;2023-02-24T08:06:59;4.90;;;3.80;;
25615;SDS011;13482;48.234;13.006;2023-02-24T08:09:32;4.88;;;4.10;;
25615;SDS011;13482;48.234;13.006;2023-02-24T08:12:15;5.45;;;3.88;;
25615;SDS011;13482;48.234;13.006;2023-02-24T08:14:48;6.07;;;4.43;;
25615;SDS011;13482;48.234;13.006;2023-02-24T08:17:19;6.93;;;4.83;;
25615;SDS011;13482;48.234;13.006;2023-02-24T08:19:52;6.18;;;4.57;;
25615;SDS011;13482;48.234;13.006;2023-02-24T08:22:42;5.45;;;4.28;;
25615;SDS011;13482;48.234;13.006;2023-02-24T08:25:13;5.57;;;4.30;;
25615;SDS011;13482;48.234;13.006;2023-02-24T08:27:45;6.70;;;4.57;;
25615;SDS011;13482;48.234;13.006;2023-02-24T08:30:34;5.47;;;4.22;;
25615;SDS011;13482;48.234;13.006;2023-02-24T08:33:07;5.43;;;4.30;;
25615;SDS011;13482;48.234;13.006;2023-02-24T08:35:37;6.57;;;4.65;;
25615;SDS011;13482;48.234;13.006;2023-02-24T08:38:12;6.50;;;4.50;;
25615;SDS011;13482;48.234;13.006;2023-02-24T08:40:47;5.70;;;4.45;;
25615;SDS011;13482;48.234;13.006;2023-02-24T08:43:28;6.35;;;4.75;;
25615;SDS011;13482;48.234;13.006;2023-02-24T08:48:45;6.50;;;5.13;;
25615;SDS011;13482;48.234;13.006;2023-02-24T08:51:22;6.63;;;5.22;;
25615;SDS011;13482;48.234;13.006;2023-02-24T08:53:58;6.10;;;4.70;;
25615;SDS011;13482;48.234;13.006;2023-02-24T08:56:29;5.80;;;4.55;;
25615;SDS011;13482;48.234;13.006;2023-02-24T08:59:01;6.00;;;4.47;;
25615;SDS011;13482;48.234;13.006;2023-02-24T09:01:38;5.03;;;4.35;;
25615;SDS011;13482;48.234;13.006;2023-02-24T09:04:29;5.70;;;4.53;;
25615;SDS011;13482;48.234;13.006;2023-02-24T09:06:59;6.43;;;5.00;;
25615;SDS011;13482;48.234;13.006;2023-02-24T09:09:37;6.57;;;4.65;;
25615;SDS011;13482;48.234;13.006;2023-02-24T09:12:08;7.28;;;5.55;;
25615;SDS011;13482;48.234;13.006;2023-02-24T09:14:54;7.80;;;5.30;;
25615;SDS011;13482;48.234;13.006;2023-02-24T09:17:27;7.30;;;5.13;;
25615;SDS011;13482;48.234;13.006;2023-02-24T09:22:53;6.90;;;5.30;;
25615;SDS011;13482;48.234;13.006;2023-02-24T09:25:38;5.85;;;4.90;;
25615;SDS011;13482;48.234;13.006;2023-02-24T09:28:10;7.05;;;5.18;;
25615;SDS011;13482;48.234;13.006;2023-02-24T09:30:50;6.18;;;4.90;;
25615;SDS011;13482;48.234;13.006;2023-02-24T09:33:33;7.40;;;4.65;;
25615;SDS011;13482;48.234;13.006;2023-02-24T09:36:07;6.22;;;4.50;;
25615;SDS011;13482;48.234;13.006;2023-02-24T09:38:42;6.10;;;5.03;;
25615;SDS011;13482;48.234;13.006;2023-02-24T09:41:38;6.78;;;4.93;;
25615;SDS011;13482;48.234;13.006;2023-02-24T09:44:24;7.10;;;4.80;;
25615;SDS011;13482;48.234;13.006;2023-02-24T09:50:05;6.28;;;5.07;;
25615;SDS011;13482;48.234;13.006;2023-02-24T09:53:09;6.30;;;4.80;;
25615;SDS011;13482;48.234;13.006;2023-02-24T09:58:28;6.60;;;5.43;;
25615;SDS011;13482;48.234;13.006;2023-02-24T10:04:19;7.72;;;5.10;;
25615;SDS011;13482;48.234;13.006;2023-02-24T10:07:34;6.15;;;4.88;;
25615;SDS011;13482;48.234;13.006;2023-02-24T10:12:46;6.18;;;5.00;;
25615;SDS011;13482;48.234;13.006;2023-02-24T10:15:19;8.52;;;5.68;;
25615;SDS011;13482;48.234;13.006;2023-02-24T10:18:19;6.68;;;4.95;;
25615;SDS011;13482;48.234;13.006;2023-02-24T10:23:52;11.45;;;9.73;;
25615;SDS011;13482;48.234;13.006;2023-02-24T10:32:54;8.15;;;7.00;;
25615;SDS011;13482;48.234;13.006;2023-02-24T10:35:27;8.20;;;7.10;;
25615;SDS011;13482;48.234;13.006;2023-02-24T10:37:59;8.52;;;7.68;;
25615;SDS011;13482;48.234;13.006;2023-02-24T10:40:31;9.13;;;7.30;;
25615;SDS011;13482;48.234;13.006;2023-02-24T10:43:16;7.10;;;5.63;;
25615;SDS011;13482;48.234;13.006;2023-02-24T10:45:50;7.20;;;5.60;;
25615;SDS011;13482;48.234;13.006;2023-02-24T10:48:34;8.38;;;5.53;;
25615;SDS011;13482;48.234;13.006;2023-02-24T10:51:10;7.63;;;5.28;;
25615;SDS011;13482;48.234;13.006;2023-02-24T10:53:46;6.82;;;5.43;;
25615;SDS011;13482;48.234;13.006;2023-02-24T10:56:41;7.50;;;5.18;;
25615;SDS011;13482;48.234;13.006;2023-02-24T10:59:14;7.45;;;5.20;;
25615;SDS011;13482;48.234;13.006;2023-02-24T11:01:54;6.03;;;4.38;;
25615;SDS011;13482;48.234;13.006;2023-02-24T11:04:33;6.65;;;5.13;;
25615;SDS011;13482;48.234;13.006;2023-02-24T11:07:30;6.75;;;5.32;;
25615;SDS011;13482;48.234;13.006;2023-02-24T11:10:20;7.78;;;5.35;;
25615;SDS011;13482;48.234;13.006;2023-02-24T11:12:58;6.50;;;5.18;;
25615;SDS011;13482;48.234;13.006;2023-02-24T11:18:36;7.15;;;5.63;;
25615;SDS011;13482;48.234;13.006;2023-02-24T11:21:06;7.40;;;5.25;;
25615;SDS011;13482;48.234;13.006;2023-02-24T11:23:41;7.13;;;5.22;;
25615;SDS011;13482;48.234;13.006;2023-02-24T11:31:47;6.87;;;4.83;;
25615;SDS011;13482;48.234;13.006;2023-02-24T11:34:53;6.35;;;3.97;;
25615;SDS011;13482;48.234;13.006;2023-02-24T11:37:37;6.30;;;4.57;;
25615;SDS011;13482;48.234;13.006;2023-02-24T11:42:57;6.68;;;4.65;;
25615;SDS011;13482;48.234;13.006;2023-02-24T11:51:06;7.10;;;5.10;;
25615;SDS011;13482;48.234;13.006;2023-02-24T11:56:26;7.68;;;4.80;;
25615;SDS011;13482;48.234;13.006;2023-02-24T11:59:14;7.40;;;5.03;;
25615;SDS011;13482;48.234;13.006;2023-02-24T12:05:15;6.55;;;4.65;;
25615;SDS011;13482;48.234;13.006;2023-02-24T12:07:51;7.13;;;4.57;;
25615;SDS011;13482;48.234;13.006;2023-02-24T12:10:24;6.45;;;4.50;;
25615;SDS011;13482;48.234;13.006;2023-02-24T12:15:58;7.03;;;4.65;;
25615;SDS011;13482;48.234;13.006;2023-02-24T12:18:39;7.00;;;5.00;;
25615;SDS011;13482;48.234;13.006;2023-02-24T12:23:57;7.28;;;5.05;;
25615;SDS011;13482;48.234;13.006;2023-02-24T12:26:25;5.47;;;4.38;;
25615;SDS011;13482;48.234;13.006;2023-02-24T12:45:54;7.18;;;4.65;;
25615;SDS011;13482;48.234;13.006;2023-02-24T12:58:29;6.90;;;4.55;;
25615;SDS011;13482;48.234;13.006;2023-02-24T13:01:08;6.18;;;4.45;;
25615;SDS011;13482;48.234;13.006;2023-02-24T13:09:54;7.78;;;4.38;;
25615;SDS011;13482;48.234;13.006;2023-02-24T13:12:48;6.07;;;4.32;;
25615;SDS011;13482;48.234;13.006;2023-02-24T13:15:26;6.03;;;4.28;;
25615;SDS011;13482;48.234;13.006;2023-02-24T13:17:56;5.07;;;3.90;;
25615;SDS011;13482;48.234;13.006;2023-02-24T13:20:32;8.50;;;4.35;;
25615;SDS011;13482;48.234;13.006;2023-02-24T13:23:14;6.85;;;4.57;;
25615;SDS011;13482;48.234;13.006;2023-02-24T13:25:50;5.97;;;4.55;;
25615;SDS011;13482;48.234;13.006;2023-02-24T13:31:03;6.35;;;4.38;;
25615;SDS011;13482;48.234;13.006;2023-02-24T13:33:34;7.00;;;4.78;;
25615;SDS011;13482;48.234;13.006;2023-02-24T13:36:23;6.60;;;4.45;;
25615;SDS011;13482;48.234;13.006;2023-02-24T13:39:02;5.72;;;4.28;;
25615;SDS011;13482;48.234;13.006;2023-02-24T13:44:19;6.75;;;4.60;;
25615;SDS011;13482;48.234;13.006;2023-02-24T14:01:20;6.88;;;5.00;;
25615;SDS011;13482;48.234;13.006;2023-02-24T14:04:36;5.43;;;4.03;;
25615;SDS011;13482;48.234;13.006;2023-02-24T14:06:57;7.13;;;4.65;;
25615;SDS011;13482;48.234;13.006;2023-02-24T14:09:38;5.72;;;4.65;;
25615;SDS011;13482;48.234;13.006;2023-02-24T14:12:15;8.18;;;4.97;;
25615;SDS011;13482;48.234;13.006;2023-02-24T14:14:47;6.57;;;4.50;;
25615;SDS011;13482;48.234;13.006;2023-02-24T14:22:50;6.35;;;4.75;;
25615;SDS011;13482;48.234;13.006;2023-02-24T14:25:28;5.25;;;3.90;;
25615;SDS011;13482;48.234;13.006;2023-02-24T14:28:00;6.03;;;4.40;;
25615;SDS011;13482;48.234;13.006;2023-02-24T14:33:05;6.53;;;4.68;;
25615;SDS011;13482;48.234;13.006;2023-02-24T14:35:46;7.70;;;5.07;;
25615;SDS011;13482;48.234;13.006;2023-02-24T14:38:31;6.80;;;4.78;;
25615;SDS011;13482;48.234;13.006;2023-02-24T14:41:05;6.35;;;4.32;;
25615;SDS011;13482;48.234;13.006;2023-02-24T14:43:44;6.32;;;4.22;;
25615;SDS011;13482;48.234;13.006;2023-02-24T14:46:12;5.93;;;4.28;;
25615;SDS011;13482;48.234;13.006;2023-02-24T14:48:39;7.35;;;4.43;;
25615;SDS011;13482;48.234;13.006;2023-02-24T14:51:07;6.63;;;4.60;;
25615;SDS011;13482;48.234;13.006;2023-02-24T14:53:49;7.18;;;4.43;;
25615;SDS011;13482;48.234;13.006;2023-02-24T14:56:21;6.60;;;4.45;;
25615;SDS011;13482;48.234;13.006;2023-02-24T14:58:57;6.28;;;4.30;;
25615;SDS011;13482;48.234;13.006;2023-02-24T15:01:35;6.10;;;4.38;;
25615;SDS011;13482;48.234;13.006;2023-02-24T15:04:11;7.15;;;4.47;;
25615;SDS011;13482;48.234;13.006;2023-02-24T15:06:48;7.65;;;4.38;;
25615;SDS011;13482;48.234;13.006;2023-02-24T15:09:16;6.07;;;4.85;;
25615;SDS011;13482;48.234;13.006;2023-02-24T15:11:47;6.97;;;5.22;;
25615;SDS011;13482;48.234;13.006;2023-02-24T15:14:22;6.10;;;4.50;;
25615;SDS011;13482;48.234;13.006;2023-02-24T15:16:57;5.45;;;4.28;;
25615;SDS011;13482;48.234;13.006;2023-02-24T15:19:34;8.85;;;4.45;;
25615;SDS011;13482;48.234;13.006;2023-02-24T15:22:19;6.78;;;4.70;;
25615;SDS011;13482;48.234;13.006;2023-02-24T15:25:18;6.63;;;3.90;;
25615;SDS011;13482;48.234;13.006;2023-02-24T15:27:52;5.85;;;4.32;;
25615;SDS011;13482;48.234;13.006;2023-02-24T15:30:38;6.22;;;4.22;;
25615;SDS011;13482;48.234;13.006;2023-02-24T15:33:20;6.78;;;5.13;;
25615;SDS011;13482;48.234;13.006;2023-02-24T15:35:52;6.07;;;4.32;;
25615;SDS011;13482;48.234;13.006;2023-02-24T15:38:29;6.55;;;4.70;;
25615;SDS011;13482;48.234;13.006;2023-02-24T15:41:02;7.15;;;4.63;;
25615;SDS011;13482;48.234;13.006;2023-02-24T15:48:58;6.90;;;4.65;;
25615;SDS011;13482;48.234;13.006;2023-02-24T15:51:42;7.72;;;5.13;;
25615;SDS011;13482;48.234;13.006;2023-02-24T15:54:28;9.32;;;5.53;;
25615;SDS011;13482;48.234;13.006;2023-02-24T15:57:01;6.35;;;5.03;;
25615;SDS011;13482;48.234;13.006;2023-02-24T15:59:30;7.47;;;5.80;;
25615;SDS011;13482;48.234;13.006;2023-02-24T16:01:57;6.63;;;5.28;;
25615;SDS011;13482;48.234;13.006;2023-02-24T16:04:24;7.38;;;5.05;;
25615;SDS011;13482;48.234;13.006;2023-02-24T16:06:53;6.60;;;5.13;;
25615;SDS011;13482;48.234;13.006;2023-02-24T16:09:25;6.72;;;4.80;;
25615;SDS011;13482;48.234;13.006;2023-02-24T16:11:57;8.55;;;5.65;;
25615;SDS011;13482;48.234;13.006;2023-02-24T16:14:25;6.80;;;4.50;;
25615;SDS011;13482;48.234;13.006;2023-02-24T16:16:52;8.23;;;5.00;;
25615;SDS011;13482;48.234;13.006;2023-02-24T16:19:20;7.45;;;4.82;;
25615;SDS011;13482;48.234;13.006;2023-02-24T16:21:47;6.57;;;5.00;;
25615;SDS011;13482;48.234;13.006;2023-02-24T16:24:14;8.38;;;6.10;;
25615;SDS011;13482;48.234;13.006;2023-02-24T16:26:41;7.47;;;5.82;;
25615;SDS011;13482;48.234;13.006;2023-02-24T16:29:11;7.75;;;5.93;;
25615;SDS011;13482;48.234;13.006;2023-02-24T16:31:40;7.07;;;5.10;;
25615;SDS011;13482;48.234;13.006;2023-02-24T16:34:08;7.70;;;5.32;;
25615;SDS011;13482;48.234;13.006;2023-02-24T16:36:41;7.45;;;5.38;;
25615;SDS011;13482;48.234;13.006;2023-02-24T16:39:10;6.75;;;5.13;;
25615;SDS011;13482;48.234;13.006;2023-02-24T16:41:39;8.75;;;5.38;;
25615;SDS011;13482;48.234;13.006;2023-02-24T16:44:06;7.65;;;4.93;;
25615;SDS011;13482;48.234;13.006;2023-02-24T16:46:36;9.00;;;5.95;;
25615;SDS011;13482;48.234;13.006;2023-02-24T16:49:07;8.80;;;5.05;;
25615;SDS011;13482;48.234;13.006;2023-02-24T16:51:38;8.10;;;4.53;;
25615;SDS011;13482;48.234;13.006;2023-02-24T16:54:06;9.05;;;4.55;;
25615;SDS011;13482;48.234;13.006;2023-02-24T16:56:34;9.10;;;4.50;;
25615;SDS011;13482;48.234;13.006;2023-02-24T16:59:01;6.28;;;4.53;;
25615;SDS011;13482;48.234;13.006;2023-02-24T17:01:28;7.47;;;5.45;;
25615;SDS011;13482;48.234;13.006;2023-02-24T17:03:55;8.63;;;5.50;;
25615;SDS011;13482;48.234;13.006;2023-02-24T17:06:22;7.90;;;5.60;;
25615;SDS011;13482;48.234;13.006;2023-02-24T17:08:52;12.65;;;9.85;;
25615;SDS011;13482;48.234;13.006;2023-02-24T17:11:19;13.07;;;10.55;;
25615;SDS011;13482;48.234;13.006;2023-02-24T17:13:48;9.50;;;7.28;;
25615;SDS011;13482;48.234;13.006;2023-02-24T17:16:15;8.57;;;6.32;;
25615;SDS011;13482;48.234;13.006;2023-02-24T17:18:43;6.43;;;4.53;;
25615;SDS011;13482;48.234;13.006;2023-02-24T17:21:11;7.60;;;4.13;;
25615;SDS011;13482;48.234;13.006;2023-02-24T17:23:39;6.15;;;3.75;;
25615;SDS011;13482;48.234;13.006;2023-02-24T17:26:13;5.95;;;3.17;;
25615;SDS011;13482;48.234;13.006;2023-02-24T17:28:41;5.97;;;2.75;;
25615;SDS011;13482;48.234;13.006;2023-02-24T17:31:08;7.25;;;3.42;;
25615;SDS011;13482;48.234;13.006;2023-02-24T17:33:36;7.45;;;3.17;;
25615;SDS011;13482;48.234;13.006;2023-02-24T17:36:03;8.13;;;3.42;;
25615;SDS011;13482;48.234;13.006;2023-02-24T17:38:30;6.53;;;3.05;;
25615;SDS011;13482;48.234;13.006;2023-02-24T17:40:57;8.07;;;3.38;;
25615;SDS011;13482;48.234;13.006;2023-02-24T17:43:27;7.45;;;3.60;;
25615;SDS011;13482;48.234;13.006;2023-02-24T17:45:54;7.32;;;3.83;;
25615;SDS011;13482;48.234;13.006;2023-02-24T17:48:22;10.18;;;3.50;;
25615;SDS011;13482;48.234;13.006;2023-02-24T17:50:49;7.85;;;3.60;;
25615;SDS011;13482;48.234;13.006;2023-02-24T17:53:17;8.60;;;3.00;;